sensor_id;sensor_type;location;lat;lon;timestamp;pressure;altitude;pressure_sealevel;temperature;humidity
29169;BME280;16219;42.864;23.360;2022-07-06T00:01:43;95794.63;;;21.71;100.00
29169;BME280;16219;42.864;23.360;2022-07-06T00:04:10;95784.63;;;21.68;100.00
29169;BME280;16219;42.864;23.360;2022-07-06T00:06:37;95784.66;;;21.82;100.00
29169;BME280;16219;42.864;23.360;2022-07-06T00:09:05;95778.88;;;21.87;100.00
29169;BME280;16219;42.864;23.360;2022-07-06T00:11:32;95781.19;;;21.96;100.00
29169;BME280;16219;42.864;23.360;2022-07-06T00:14:01;95789.63;;;21.94;100.00
29169;BME280;16219;42.864;23.360;2022-07-06T00:16:28;95787.72;;;21.91;100.00
29169;BME280;16219;42.864;23.360;2022-07-06T00:18:56;95794.66;;;21.92;100.00
29169;BME280;16219;42.864;23.360;2022-07-06T00:21:23;95785.78;;;21.74;100.00
29169;BME280;16219;42.864;23.360;2022-07-06T00:23:50;95783.88;;;21.71;100.00
29169;BME280;16219;42.864;23.360;2022-07-06T00:26:18;95786.19;;;21.76;100.00
29169;BME280;16219;42.864;23.360;2022-07-06T00:28:46;95784.25;;;21.77;100.00
29169;BME280;16219;42.864;23.360;2022-07-06T00:31:15;95782.34;;;21.70;100.00
29169;BME280;16219;42.864;23.360;2022-07-06T00:33:42;95790.41;;;21.63;100.00
29169;BME280;16219;42.864;23.360;2022-07-06T00:36:10;95799.19;;;21.60;100.00
29169;BME280;16219;42.864;23.360;2022-07-06T00:38:37;95791.53;;;21.62;100.00
29169;BME280;16219;42.864;23.360;2022-07-06T00:41:04;95779.25;;;21.61;100.00
29169;BME280;16219;42.864;23.360;2022-07-06T00:43:46;95776.97;;;21.59;100.00
29169;BME280;16219;42.864;23.360;2022-07-06T00:46:15;95778.50;;;21.64;100.00
29169;BME280;16219;42.864;23.360;2022-07-06T00:48:42;95782.34;;;21.63;100.00
29169;BME280;16219;42.864;23.360;2022-07-06T00:51:10;95775.41;;;21.62;100.00
29169;BME280;16219;42.864;23.360;2022-07-06T00:53:37;95768.50;;;21.61;100.00
29169;BME280;16219;42.864;23.360;2022-07-06T00:56:05;95757.38;;;21.52;100.00
29169;BME280;16219;42.864;23.360;2022-07-06T00:58:32;95756.22;;;21.53;100.00
29169;BME280;16219;42.864;23.360;2022-07-06T01:01:00;95750.38;;;21.18;100.00
29169;BME280;16219;42.864;23.360;2022-07-06T01:03:28;95743.81;;;20.98;100.00
29169;BME280;16219;42.864;23.360;2022-07-06T01:17:54;95731.72;;;22.01;100.00
29169;BME280;16219;42.864;23.360;2022-07-06T01:20:29;95746.28;;;21.85;100.00
29169;BME280;16219;42.864;23.360;2022-07-06T01:22:59;95738.59;;;21.41;100.00
29169;BME280;16219;42.864;23.360;2022-07-06T01:25:26;95736.28;;;21.46;100.00
29169;BME280;16219;42.864;23.360;2022-07-06T01:27:53;95738.22;;;21.46;100.00
29169;BME280;16219;42.864;23.360;2022-07-06T01:30:20;95730.53;;;21.34;100.00
29169;BME280;16219;42.864;23.360;2022-07-06T01:32:47;95727.78;;;21.23;100.00
29169;BME280;16219;42.864;23.360;2022-07-06T01:35:15;95727.78;;;21.12;100.00
29169;BME280;16219;42.864;23.360;2022-07-06T01:37:44;95728.91;;;21.08;100.00
29169;BME280;16219;42.864;23.360;2022-07-06T01:40:11;95737.69;;;21.01;100.00
29169;BME280;16219;42.864;23.360;2022-07-06T01:54:33;95752.81;;;21.63;100.00
29169;BME280;16219;42.864;23.360;2022-07-06T01:57:00;95755.44;;;21.45;100.00
29169;BME280;16219;42.864;23.360;2022-07-06T01:59:27;95754.28;;;21.32;100.00
29169;BME280;16219;42.864;23.360;2022-07-06T02:01:55;95754.25;;;21.25;100.00
29169;BME280;16219;42.864;23.360;2022-07-06T02:04:22;95751.56;;;21.21;100.00
29169;BME280;16219;42.864;23.360;2022-07-06T02:06:49;95754.22;;;21.14;100.00
29169;BME280;16219;42.864;23.360;2022-07-06T02:09:17;95754.56;;;21.02;100.00
29169;BME280;16219;42.864;23.360;2022-07-06T02:11:46;95739.19;;;20.88;100.00
29169;BME280;16219;42.864;23.360;2022-07-06T02:14:14;95740.22;;;20.58;100.00
29169;BME280;16219;42.864;23.360;2022-07-06T02:16:42;95739.34;;;20.43;100.00
29169;BME280;16219;42.864;23.360;2022-07-06T02:19:09;95742.00;;;20.36;100.00
29169;BME280;16219;42.864;23.360;2022-07-06T02:21:36;95741.25;;;20.46;100.00
29169;BME280;16219;42.864;23.360;2022-07-06T02:24:04;95738.25;;;20.52;100.00
29169;BME280;16219;42.864;23.360;2022-07-06T02:26:32;95745.22;;;20.63;100.00
29169;BME280;16219;42.864;23.360;2022-07-06T02:29:00;95738.28;;;20.59;100.00
29169;BME280;16219;42.864;23.360;2022-07-06T02:31:27;95724.06;;;20.47;100.00
29169;BME280;16219;42.864;23.360;2022-07-06T02:33:54;95734.13;;;20.68;100.00
29169;BME280;16219;42.864;23.360;2022-07-06T02:36:22;95740.66;;;20.75;100.00
29169;BME280;16219;42.864;23.360;2022-07-06T02:38:49;95739.13;;;20.74;100.00
29169;BME280;16219;42.864;23.360;2022-07-06T02:41:16;95736.03;;;20.68;100.00
29169;BME280;16219;42.864;23.360;2022-07-06T02:43:43;95737.19;;;20.67;100.00
29169;BME280;16219;42.864;23.360;2022-07-06T02:46:13;95742.53;;;20.67;100.00
29169;BME280;16219;42.864;23.360;2022-07-06T02:48:41;95741.41;;;20.68;100.00
29169;BME280;16219;42.864;23.360;2022-07-06T02:51:08;95746.41;;;20.73;100.00
29169;BME280;16219;42.864;23.360;2022-07-06T02:53:35;95747.16;;;20.70;100.00
29169;BME280;16219;42.864;23.360;2022-07-06T02:56:03;95741.00;;;20.62;100.00
29169;BME280;16219;42.864;23.360;2022-07-06T02:58:32;95747.88;;;20.63;100.00
29169;BME280;16219;42.864;23.360;2022-07-06T03:01:00;95745.94;;;20.53;100.00
29169;BME280;16219;42.864;23.360;2022-07-06T03:03:29;95747.81;;;20.49;100.00
29169;BME280;16219;42.864;23.360;2022-07-06T03:05:57;95750.53;;;20.53;100.00
29169;BME280;16219;42.864;23.360;2022-07-06T03:08:24;95748.22;;;20.51;100.00
29169;BME280;16219;42.864;23.360;2022-07-06T03:10:51;95749.00;;;20.55;100.00
29169;BME280;16219;42.864;23.360;2022-07-06T03:13:18;95749.41;;;20.57;100.00
29169;BME280;16219;42.864;23.360;2022-07-06T03:15:46;95748.50;;;20.39;100.00
29169;BME280;16219;42.864;23.360;2022-07-06T03:18:14;95754.97;;;20.34;100.00
29169;BME280;16219;42.864;23.360;2022-07-06T03:20:43;95757.25;;;20.29;100.00
29169;BME280;16219;42.864;23.360;2022-07-06T03:23:13;95758.16;;;20.51;100.00
29169;BME280;16219;42.864;23.360;2022-07-06T03:25:40;95748.22;;;20.51;100.00
29169;BME280;16219;42.864;23.360;2022-07-06T03:28:08;95753.22;;;20.56;100.00
29169;BME280;16219;42.864;23.360;2022-07-06T03:30:35;95755.81;;;20.45;100.00
29169;BME280;16219;42.864;23.360;2022-07-06T03:33:03;95748.50;;;20.39;100.00
29169;BME280;16219;42.864;23.360;2022-07-06T03:35:30;95748.19;;;20.47;100.00
29169;BME280;16219;42.864;23.360;2022-07-06T03:37:59;95750.72;;;20.26;100.00
29169;BME280;16219;42.864;23.360;2022-07-06T03:40:29;95758.03;;;20.33;100.00
29169;BME280;16219;42.864;23.360;2022-07-06T03:42:56;95763.44;;;20.40;100.00
29169;BME280;16219;42.864;23.360;2022-07-06T03:45:25;95768.13;;;20.50;100.00
29169;BME280;16219;42.864;23.360;2022-07-06T03:47:52;95764.66;;;20.50;100.00
29169;BME280;16219;42.864;23.360;2022-07-06T03:50:20;95775.66;;;20.34;100.00
29169;BME280;16219;42.864;23.360;2022-07-06T03:52:47;95771.75;;;20.24;100.00
29169;BME280;16219;42.864;23.360;2022-07-06T03:55:15;95770.25;;;20.27;100.00
29169;BME280;16219;42.864;23.360;2022-07-06T03:57:48;95775.19;;;20.21;100.00
29169;BME280;16219;42.864;23.360;2022-07-06T04:00:19;95769.44;;;20.19;100.00
29169;BME280;16219;42.864;23.360;2022-07-06T04:02:54;95780.91;;;20.19;100.00
29169;BME280;16219;42.864;23.360;2022-07-06T04:05:25;95772.84;;;20.16;100.00
29169;BME280;16219;42.864;23.360;2022-07-06T04:07:53;95767.91;;;20.21;100.00
29169;BME280;16219;42.864;23.360;2022-07-06T04:10:27;95773.72;;;20.31;100.00
29169;BME280;16219;42.864;23.360;2022-07-06T04:12:57;95767.34;;;20.50;100.00
29169;BME280;16219;42.864;23.360;2022-07-06T04:15:24;95777.31;;;20.49;100.00
29169;BME280;16219;42.864;23.360;2022-07-06T04:17:51;95779.25;;;20.52;100.00
29169;BME280;16219;42.864;23.360;2022-07-06T04:20:23;95786.91;;;20.54;100.00
29169;BME280;16219;42.864;23.360;2022-07-06T04:22:52;95796.53;;;20.62;100.00
29169;BME280;16219;42.864;23.360;2022-07-06T04:25:21;95792.66;;;20.59;100.00
29169;BME280;16219;42.864;23.360;2022-07-06T04:27:50;95806.50;;;20.65;100.00
29169;BME280;16219;42.864;23.360;2022-07-06T04:30:17;95801.94;;;20.76;100.00
29169;BME280;16219;42.864;23.360;2022-07-06T04:32:44;95799.69;;;20.85;100.00
29169;BME280;16219;42.864;23.360;2022-07-06T04:35:12;95807.84;;;21.03;100.00
29169;BME280;16219;42.864;23.360;2022-07-06T04:37:41;95804.81;;;21.15;100.00
29169;BME280;16219;42.864;23.360;2022-07-06T04:40:11;95803.34;;;21.36;100.00
29169;BME280;16219;42.864;23.360;2022-07-06T04:42:39;95816.84;;;21.57;100.00
29169;BME280;16219;42.864;23.360;2022-07-06T04:45:08;95819.53;;;21.64;100.00
29169;BME280;16219;42.864;23.360;2022-07-06T04:47:36;95819.56;;;21.71;100.00
29169;BME280;16219;42.864;23.360;2022-07-06T04:50:04;95823.75;;;21.69;100.00
29169;BME280;16219;42.864;23.360;2022-07-06T04:52:32;95825.25;;;21.41;100.00
29169;BME280;16219;42.864;23.360;2022-07-06T04:54:59;95829.13;;;21.58;100.00
29169;BME280;16219;42.864;23.360;2022-07-06T04:57:27;95832.63;;;22.02;100.00
29169;BME280;16219;42.864;23.360;2022-07-06T04:59:56;95832.66;;;22.27;100.00
29169;BME280;16219;42.864;23.360;2022-07-06T05:02:25;95836.88;;;22.31;100.00
29169;BME280;16219;42.864;23.360;2022-07-06T05:04:52;95838.41;;;22.32;100.00
29169;BME280;16219;42.864;23.360;2022-07-06T05:07:19;95836.13;;;22.27;100.00
29169;BME280;16219;42.864;23.360;2022-07-06T05:09:47;95836.50;;;22.18;100.00
29169;BME280;16219;42.864;23.360;2022-07-06T05:12:14;95840.34;;;22.21;100.00
29169;BME280;16219;42.864;23.360;2022-07-06T05:14:41;95838.03;;;22.19;100.00
29169;BME280;16219;42.864;23.360;2022-07-06T05:17:08;95843.41;;;22.16;100.00
29169;BME280;16219;42.864;23.360;2022-07-06T05:19:38;95842.63;;;22.33;100.00
29169;BME280;16219;42.864;23.360;2022-07-06T05:22:05;95851.19;;;23.52;100.00
29169;BME280;16219;42.864;23.360;2022-07-06T05:24:33;95855.81;;;24.66;100.00
29169;BME280;16219;42.864;23.360;2022-07-06T05:27:01;95872.97;;;25.55;100.00
29169;BME280;16219;42.864;23.360;2022-07-06T05:29:28;95872.69;;;25.49;100.00
29169;BME280;16219;42.864;23.360;2022-07-06T05:31:56;95888.66;;;24.99;100.00
29169;BME280;16219;42.864;23.360;2022-07-06T05:34:23;95879.19;;;24.38;100.00
29169;BME280;16219;42.864;23.360;2022-07-06T05:36:53;95878.06;;;23.66;100.00
29169;BME280;16219;42.864;23.360;2022-07-06T05:39:20;95879.03;;;23.13;100.00
29169;BME280;16219;42.864;23.360;2022-07-06T05:41:48;95876.78;;;22.76;100.00
29169;BME280;16219;42.864;23.360;2022-07-06T05:44:17;95876.03;;;22.54;100.00
29169;BME280;16219;42.864;23.360;2022-07-06T05:46:45;95877.56;;;22.58;100.00
29169;BME280;16219;42.864;23.360;2022-07-06T05:49:13;95885.63;;;22.76;100.00
29169;BME280;16219;42.864;23.360;2022-07-06T05:51:59;95887.56;;;22.90;100.00
29169;BME280;16219;42.864;23.360;2022-07-06T05:54:27;95892.16;;;22.97;100.00
29169;BME280;16219;42.864;23.360;2022-07-06T05:56:54;95880.63;;;23.00;100.00
29169;BME280;16219;42.864;23.360;2022-07-06T05:59:22;95885.63;;;22.90;100.00
29169;BME280;16219;42.864;23.360;2022-07-06T06:01:49;95886.00;;;22.92;100.00
29169;BME280;16219;42.864;23.360;2022-07-06T06:04:21;95873.69;;;22.88;100.00
29169;BME280;16219;42.864;23.360;2022-07-06T06:06:48;95889.81;;;22.88;100.00
29169;BME280;16219;42.864;23.360;2022-07-06T06:09:17;95882.53;;;22.88;100.00
29169;BME280;16219;42.864;23.360;2022-07-06T06:11:44;95882.19;;;22.90;100.00
29169;BME280;16219;42.864;23.360;2022-07-06T06:14:11;95881.38;;;22.75;100.00
29169;BME280;16219;42.864;23.360;2022-07-06T06:16:39;95884.47;;;22.77;100.00
29169;BME280;16219;42.864;23.360;2022-07-06T06:19:06;95881.75;;;22.84;100.00
29169;BME280;16219;42.864;23.360;2022-07-06T06:21:33;95876.38;;;22.88;100.00
29169;BME280;16219;42.864;23.360;2022-07-06T06:24:00;95876.00;;;22.93;100.00
29169;BME280;16219;42.864;23.360;2022-07-06T06:26:28;95875.63;;;22.94;100.00
29169;BME280;16219;42.864;23.360;2022-07-06T06:28:55;95874.06;;;22.97;100.00
29169;BME280;16219;42.864;23.360;2022-07-06T06:31:22;95870.19;;;23.16;100.00
29169;BME280;16219;42.864;23.360;2022-07-06T06:33:49;95856.72;;;23.19;100.00
29169;BME280;16219;42.864;23.360;2022-07-06T06:36:18;95867.78;;;23.39;100.00
29169;BME280;16219;42.864;23.360;2022-07-06T06:38:45;95867.28;;;23.69;100.00
29169;BME280;16219;42.864;23.360;2022-07-06T06:41:13;95867.50;;;23.97;100.00
29169;BME280;16219;42.864;23.360;2022-07-06T06:43:42;95871.19;;;24.17;100.00
29169;BME280;16219;42.864;23.360;2022-07-06T06:46:16;95868.03;;;24.29;100.00
29169;BME280;16219;42.864;23.360;2022-07-06T06:48:43;95874.41;;;24.53;100.00
29169;BME280;16219;42.864;23.360;2022-07-06T06:51:11;95856.38;;;24.84;100.00
29169;BME280;16219;42.864;23.360;2022-07-06T06:53:38;95867.59;;;25.21;100.00
29169;BME280;16219;42.864;23.360;2022-07-06T06:56:05;95874.50;;;25.25;100.00
29169;BME280;16219;42.864;23.360;2022-07-06T06:58:32;95867.09;;;24.95;100.00
29169;BME280;16219;42.864;23.360;2022-07-06T07:01:00;95869.69;;;24.68;100.00
29169;BME280;16219;42.864;23.360;2022-07-06T07:03:28;95862.44;;;24.58;100.00
29169;BME280;16219;42.864;23.360;2022-07-06T07:05:55;95872.97;;;24.41;100.00
29169;BME280;16219;42.864;23.360;2022-07-06T07:08:22;95871.69;;;24.05;100.00
29169;BME280;16219;42.864;23.360;2022-07-06T07:10:49;95872.59;;;23.84;100.00
29169;BME280;16219;42.864;23.360;2022-07-06T07:13:16;95866.03;;;23.85;100.00
29169;BME280;16219;42.864;23.360;2022-07-06T07:15:44;95872.94;;;23.89;100.00
29169;BME280;16219;42.864;23.360;2022-07-06T07:18:13;95860.25;;;23.83;100.00
29169;BME280;16219;42.864;23.360;2022-07-06T07:20:40;95867.97;;;23.84;100.00
29169;BME280;16219;42.864;23.360;2022-07-06T07:23:07;95870.59;;;23.95;100.00
29169;BME280;16219;42.864;23.360;2022-07-06T07:25:34;95871.72;;;23.98;100.00
29169;BME280;16219;42.864;23.360;2022-07-06T07:28:04;95872.50;;;23.98;100.00
29169;BME280;16219;42.864;23.360;2022-07-06T07:30:31;95863.22;;;24.03;100.00
29169;BME280;16219;42.864;23.360;2022-07-06T07:32:58;95870.81;;;24.18;100.00
29169;BME280;16219;42.864;23.360;2022-07-06T07:35:28;95859.19;;;24.29;100.00
29169;BME280;16219;42.864;23.360;2022-07-06T07:37:55;95855.94;;;24.52;100.00
29169;BME280;16219;42.864;23.360;2022-07-06T07:40:23;95870.19;;;24.93;100.00
29169;BME280;16219;42.864;23.360;2022-07-06T07:42:50;95866.19;;;25.43;100.00
29169;BME280;16219;42.864;23.360;2022-07-06T07:45:17;95867.94;;;25.57;100.00
29169;BME280;16219;42.864;23.360;2022-07-06T07:47:44;95852.59;;;25.81;100.00
29169;BME280;16219;42.864;23.360;2022-07-06T07:50:12;95866.94;;;26.05;100.00
29169;BME280;16219;42.864;23.360;2022-07-06T07:52:41;95862.75;;;26.51;100.00
29169;BME280;16219;42.864;23.360;2022-07-06T07:55:09;95859.44;;;26.63;100.00
29169;BME280;16219;42.864;23.360;2022-07-06T07:57:37;95867.03;;;26.48;100.00
29169;BME280;16219;42.864;23.360;2022-07-06T08:00:05;95853.22;;;26.15;100.00
29169;BME280;16219;42.864;23.360;2022-07-06T08:02:37;95863.50;;;26.01;100.00
29169;BME280;16219;42.864;23.360;2022-07-06T08:05:05;95852.31;;;25.99;100.00
29169;BME280;16219;42.864;23.360;2022-07-06T08:07:32;95854.25;;;25.98;100.00
29169;BME280;16219;42.864;23.360;2022-07-06T08:10:00;95861.72;;;25.60;100.00
29169;BME280;16219;42.864;23.360;2022-07-06T08:12:28;95858.88;;;25.40;100.00
29169;BME280;16219;42.864;23.360;2022-07-06T08:14:55;95858.66;;;25.27;100.00
29169;BME280;16219;42.864;23.360;2022-07-06T08:17:22;95873.03;;;25.17;100.00
29169;BME280;16219;42.864;23.360;2022-07-06T08:19:49;95868.16;;;25.39;100.00
29169;BME280;16219;42.864;23.360;2022-07-06T08:22:16;95870.03;;;25.73;100.00
29169;BME280;16219;42.864;23.360;2022-07-06T08:24:43;95869.97;;;25.80;100.00
29169;BME280;16219;42.864;23.360;2022-07-06T08:27:12;95867.72;;;25.75;100.00
29169;BME280;16219;42.864;23.360;2022-07-06T08:29:39;95861.41;;;25.85;100.00
29169;BME280;16219;42.864;23.360;2022-07-06T08:32:06;95859.88;;;25.84;100.00
29169;BME280;16219;42.864;23.360;2022-07-06T08:34:33;95862.63;;;25.80;100.00
29169;BME280;16219;42.864;23.360;2022-07-06T08:37:00;95858.44;;;25.76;100.00
29169;BME280;16219;42.864;23.360;2022-07-06T08:39:28;95866.16;;;25.74;100.00
29169;BME280;16219;42.864;23.360;2022-07-06T08:41:56;95854.25;;;25.98;100.00
29169;BME280;16219;42.864;23.360;2022-07-06T08:44:25;95852.53;;;26.11;100.00
29169;BME280;16219;42.864;23.360;2022-07-06T08:46:55;95855.59;;;26.13;100.00
29169;BME280;16219;42.864;23.360;2022-07-06T08:49:25;95853.41;;;26.05;100.00
29169;BME280;16219;42.864;23.360;2022-07-06T08:51:53;95858.09;;;26.01;100.00
29169;BME280;16219;42.864;23.360;2022-07-06T08:54:21;95859.50;;;25.82;100.00
29169;BME280;16219;42.864;23.360;2022-07-06T08:56:49;95853.00;;;25.79;100.00
29169;BME280;16219;42.864;23.360;2022-07-06T08:59:16;95853.06;;;25.72;100.00
29169;BME280;16219;42.864;23.360;2022-07-06T09:01:45;95851.78;;;25.53;100.00
29169;BME280;16219;42.864;23.360;2022-07-06T09:04:16;95861.00;;;25.56;100.00
29169;BME280;16219;42.864;23.360;2022-07-06T09:06:46;95860.09;;;25.66;100.00
29169;BME280;16219;42.864;23.360;2022-07-06T09:09:18;95856.91;;;26.02;100.00
29169;BME280;16219;42.864;23.360;2022-07-06T09:11:46;95858.94;;;26.48;100.00
29169;BME280;16219;42.864;23.360;2022-07-06T09:14:13;95862.28;;;26.56;100.00
29169;BME280;16219;42.864;23.360;2022-07-06T09:16:41;95863.91;;;26.50;100.00
29169;BME280;16219;42.864;23.360;2022-07-06T09:19:11;95843.06;;;26.23;100.00
29169;BME280;16219;42.864;23.360;2022-07-06T09:21:39;95855.78;;;26.26;100.00
29169;BME280;16219;42.864;23.360;2022-07-06T09:24:10;95862.13;;;25.89;100.00
29169;BME280;16219;42.864;23.360;2022-07-06T09:26:38;95855.34;;;25.77;100.00
29169;BME280;16219;42.864;23.360;2022-07-06T09:29:06;95852.38;;;25.64;100.00
29169;BME280;16219;42.864;23.360;2022-07-06T09:31:34;95844.72;;;25.32;100.00
29169;BME280;16219;42.864;23.360;2022-07-06T09:34:03;95835.16;;;25.24;100.00
29169;BME280;16219;42.864;23.360;2022-07-06T09:36:42;95844.91;;;25.14;100.00
29169;BME280;16219;42.864;23.360;2022-07-06T09:39:23;95843.16;;;24.97;100.00
29169;BME280;16219;42.864;23.360;2022-07-06T09:41:52;95846.19;;;25.03;100.00
29169;BME280;16219;42.864;23.360;2022-07-06T09:44:24;95842.00;;;24.98;100.00
29169;BME280;16219;42.864;23.360;2022-07-06T09:46:52;95839.25;;;25.02;100.00
29169;BME280;16219;42.864;23.360;2022-07-06T09:49:20;95837.25;;;25.06;100.00
29169;BME280;16219;42.864;23.360;2022-07-06T09:51:51;95827.59;;;25.12;100.00
29169;BME280;16219;42.864;23.360;2022-07-06T09:54:18;95823.69;;;25.16;100.00
29169;BME280;16219;42.864;23.360;2022-07-06T09:56:47;95818.97;;;25.24;100.00
29169;BME280;16219;42.864;23.360;2022-07-06T09:59:19;95818.75;;;25.11;100.00
29169;BME280;16219;42.864;23.360;2022-07-06T10:01:47;95826.22;;;24.93;100.00
29169;BME280;16219;42.864;23.360;2022-07-06T10:04:14;95823.72;;;24.75;100.00
29169;BME280;16219;42.864;23.360;2022-07-06T10:06:44;95828.16;;;24.55;100.00
29169;BME280;16219;42.864;23.360;2022-07-06T10:09:14;95824.38;;;24.49;100.00
29169;BME280;16219;42.864;23.360;2022-07-06T10:11:44;95829.63;;;24.63;100.00
29169;BME280;16219;42.864;23.360;2022-07-06T10:14:17;95839.63;;;24.66;100.00
29169;BME280;16219;42.864;23.360;2022-07-06T10:16:46;95831.81;;;24.75;100.00
29169;BME280;16219;42.864;23.360;2022-07-06T10:19:14;95835.97;;;24.83;100.00
29169;BME280;16219;42.864;23.360;2022-07-06T10:21:43;95833.25;;;24.87;100.00
29169;BME280;16219;42.864;23.360;2022-07-06T10:24:12;95825.63;;;24.78;100.00
29169;BME280;16219;42.864;23.360;2022-07-06T10:26:41;95823.91;;;24.95;100.00
29169;BME280;16219;42.864;23.360;2022-07-06T10:29:08;95829.78;;;24.86;100.00
29169;BME280;16219;42.864;23.360;2022-07-06T10:31:38;95820.00;;;25.00;100.00
29169;BME280;16219;42.864;23.360;2022-07-06T10:34:08;95828.41;;;25.09;100.00
29169;BME280;16219;42.864;23.360;2022-07-06T10:36:40;95833.81;;;25.05;100.00
29169;BME280;16219;42.864;23.360;2022-07-06T10:39:09;95822.66;;;25.03;100.00
29169;BME280;16219;42.864;23.360;2022-07-06T10:41:55;95820.94;;;25.20;100.00
29169;BME280;16219;42.864;23.360;2022-07-06T10:44:24;95822.72;;;25.61;100.00
29169;BME280;16219;42.864;23.360;2022-07-06T10:46:52;95827.56;;;25.73;100.00
29169;BME280;16219;42.864;23.360;2022-07-06T10:49:20;95836.56;;;25.93;100.00
29169;BME280;16219;42.864;23.360;2022-07-06T10:51:48;95837.72;;;26.47;100.00
29169;BME280;16219;42.864;23.360;2022-07-06T10:54:17;95830.38;;;26.43;100.00
29169;BME280;16219;42.864;23.360;2022-07-06T10:56:47;95815.53;;;26.55;100.00
29169;BME280;16219;42.864;23.360;2022-07-06T10:59:23;95820.94;;;26.75;100.00
29169;BME280;16219;42.864;23.360;2022-07-06T11:02:12;95821.88;;;27.08;100.00
29169;BME280;16219;42.864;23.360;2022-07-06T11:04:40;95810.06;;;27.38;100.00
29169;BME280;16219;42.864;23.360;2022-07-06T11:07:09;95813.34;;;27.66;100.00
29169;BME280;16219;42.864;23.360;2022-07-06T11:09:36;95811.56;;;27.96;100.00
29169;BME280;16219;42.864;23.360;2022-07-06T11:12:15;95815.09;;;27.93;92.07
29169;BME280;16219;42.864;23.360;2022-07-06T11:14:46;95811.09;;;27.81;95.12
29169;BME280;16219;42.864;23.360;2022-07-06T11:17:14;95817.06;;;27.72;91.65
29169;BME280;16219;42.864;23.360;2022-07-06T11:19:49;95797.16;;;27.26;93.18
29169;BME280;16219;42.864;23.360;2022-07-06T11:22:17;95806.16;;;27.39;96.83
29169;BME280;16219;42.864;23.360;2022-07-06T11:24:45;95809.19;;;27.61;100.00
29169;BME280;16219;42.864;23.360;2022-07-06T11:27:13;95791.53;;;27.89;90.76
29169;BME280;16219;42.864;23.360;2022-07-06T11:29:40;95797.13;;;27.99;92.31
29169;BME280;16219;42.864;23.360;2022-07-06T11:32:10;95788.31;;;28.11;95.60
29169;BME280;16219;42.864;23.360;2022-07-06T11:34:39;95792.06;;;27.64;97.48
29169;BME280;16219;42.864;23.360;2022-07-06T11:37:09;95790.06;;;27.32;97.49
29169;BME280;16219;42.864;23.360;2022-07-06T11:39:38;95792.63;;;27.39;100.00
29169;BME280;16219;42.864;23.360;2022-07-06T11:42:07;95786.31;;;27.26;100.00
29169;BME280;16219;42.864;23.360;2022-07-06T11:44:35;95782.63;;;26.97;98.72
29169;BME280;16219;42.864;23.360;2022-07-06T11:47:04;95781.19;;;26.72;100.00
29169;BME280;16219;42.864;23.360;2022-07-06T11:49:34;95781.03;;;26.79;100.00
29169;BME280;16219;42.864;23.360;2022-07-06T11:52:05;95784.31;;;26.71;100.00
29169;BME280;16219;42.864;23.360;2022-07-06T11:54:33;95771.41;;;26.98;100.00
29169;BME280;16219;42.864;23.360;2022-07-06T11:57:00;95777.66;;;27.15;100.00
29169;BME280;16219;42.864;23.360;2022-07-06T11:59:31;95779.13;;;27.20;100.00
29169;BME280;16219;42.864;23.360;2022-07-06T12:02:02;95778.00;;;27.17;100.00
29169;BME280;16219;42.864;23.360;2022-07-06T12:04:31;95768.97;;;27.04;100.00
29169;BME280;16219;42.864;23.360;2022-07-06T12:07:02;95765.63;;;26.96;94.79
29169;BME280;16219;42.864;23.360;2022-07-06T12:09:30;95764.25;;;26.68;96.66
29169;BME280;16219;42.864;23.360;2022-07-06T12:11:58;95777.44;;;26.66;100.00
29169;BME280;16219;42.864;23.360;2022-07-06T12:14:29;95765.63;;;26.56;100.00
29169;BME280;16219;42.864;23.360;2022-07-06T12:16:56;95771.81;;;26.57;98.95
29169;BME280;16219;42.864;23.360;2022-07-06T12:19:29;95773.13;;;26.49;100.00
29169;BME280;16219;42.864;23.360;2022-07-06T12:21:56;95774.56;;;26.53;100.00
29169;BME280;16219;42.864;23.360;2022-07-06T12:24:26;95778.59;;;26.41;100.00
29169;BME280;16219;42.864;23.360;2022-07-06T12:26:55;95781.09;;;26.32;100.00
29169;BME280;16219;42.864;23.360;2022-07-06T12:29:23;95775.13;;;26.21;100.00
29169;BME280;16219;42.864;23.360;2022-07-06T12:31:51;95759.72;;;26.18;100.00
29169;BME280;16219;42.864;23.360;2022-07-06T12:34:20;95755.88;;;26.15;100.00
29169;BME280;16219;42.864;23.360;2022-07-06T12:36:49;95767.78;;;26.41;100.00
29169;BME280;16219;42.864;23.360;2022-07-06T12:39:17;95760.63;;;26.75;100.00
29169;BME280;16219;42.864;23.360;2022-07-06T12:41:48;95774.94;;;26.95;98.61
29169;BME280;16219;42.864;23.360;2022-07-06T12:44:17;95759.13;;;26.94;100.00
29169;BME280;16219;42.864;23.360;2022-07-06T12:46:45;95758.63;;;27.19;97.35
29169;BME280;16219;42.864;23.360;2022-07-06T12:49:18;95755.13;;;27.54;96.22
29169;BME280;16219;42.864;23.360;2022-07-06T12:51:53;95757.03;;;27.90;98.04
29169;BME280;16219;42.864;23.360;2022-07-06T12:54:21;95755.53;;;28.05;94.41
29169;BME280;16219;42.864;23.360;2022-07-06T12:56:59;95733.72;;;28.25;86.83
29169;BME280;16219;42.864;23.360;2022-07-06T12:59:27;95733.72;;;28.25;85.95
29169;BME280;16219;42.864;23.360;2022-07-06T13:01:54;95733.28;;;28.27;79.64
29169;BME280;16219;42.864;23.360;2022-07-06T13:04:23;95733.44;;;28.20;80.27
29169;BME280;16219;42.864;23.360;2022-07-06T13:06:50;95726.22;;;28.46;88.12
29169;BME280;16219;42.864;23.360;2022-07-06T13:09:18;95725.91;;;28.85;77.19
29169;BME280;16219;42.864;23.360;2022-07-06T13:11:46;95720.53;;;28.98;68.45